sensor_id;sensor_type;location;lat;lon;timestamp;P1;durP1;ratioP1;P2;durP2;ratioP2
11839;SDS011;5979;50.800;4.904;2023-03-23T00:01:48;3.38;;;3.17;;
11839;SDS011;5979;50.800;4.904;2023-03-23T00:04:17;3.83;;;3.58;;
11839;SDS011;5979;50.800;4.904;2023-03-23T00:06:43;3.78;;;3.50;;
11839;SDS011;5979;50.800;4.904;2023-03-23T00:09:10;3.67;;;3.38;;
11839;SDS011;5979;50.800;4.904;2023-03-23T00:11:38;3.63;;;3.42;;
11839;SDS011;5979;50.800;4.904;2023-03-23T00:14:04;3.90;;;3.70;;
11839;SDS011;5979;50.800;4.904;2023-03-23T00:16:30;4.47;;;4.07;;
11839;SDS011;5979;50.800;4.904;2023-03-23T00:18:59;4.15;;;3.75;;
11839;SDS011;5979;50.800;4.904;2023-03-23T00:21:33;4.35;;;3.75;;
11839;SDS011;5979;50.800;4.904;2023-03-23T00:24:05;4.00;;;3.60;;
11839;SDS011;5979;50.800;4.904;2023-03-23T00:26:33;5.03;;;3.55;;
11839;SDS011;5979;50.800;4.904;2023-03-23T00:29:00;4.35;;;3.67;;
11839;SDS011;5979;50.800;4.904;2023-03-23T00:31:29;5.55;;;4.00;;
11839;SDS011;5979;50.800;4.904;2023-03-23T00:34:00;4.43;;;4.00;;
11839;SDS011;5979;50.800;4.904;2023-03-23T00:36:29;4.10;;;3.70;;
11839;SDS011;5979;50.800;4.904;2023-03-23T00:38:56;3.58;;;3.38;;
11839;SDS011;5979;50.800;4.904;2023-03-23T00:41:23;4.10;;;3.85;;
11839;SDS011;5979;50.800;4.904;2023-03-23T00:43:52;3.95;;;3.63;;
11839;SDS011;5979;50.800;4.904;2023-03-23T00:46:18;4.05;;;3.70;;
11839;SDS011;5979;50.800;4.904;2023-03-23T00:48:45;4.00;;;3.70;;
11839;SDS011;5979;50.800;4.904;2023-03-23T00:51:11;4.28;;;3.97;;
11839;SDS011;5979;50.800;4.904;2023-03-23T00:53:40;4.13;;;3.83;;
11839;SDS011;5979;50.800;4.904;2023-03-23T00:56:07;3.92;;;3.58;;
11839;SDS011;5979;50.800;4.904;2023-03-23T00:58:33;4.82;;;4.43;;
11839;SDS011;5979;50.800;4.904;2023-03-23T01:00:59;4.38;;;4.07;;
11839;SDS011;5979;50.800;4.904;2023-03-23T01:03:25;3.97;;;3.67;;
11839;SDS011;5979;50.800;4.904;2023-03-23T01:05:53;4.07;;;3.72;;
11839;SDS011;5979;50.800;4.904;2023-03-23T01:08:20;4.10;;;3.80;;
11839;SDS011;5979;50.800;4.904;2023-03-23T01:10:46;4.43;;;4.13;;
11839;SDS011;5979;50.800;4.904;2023-03-23T01:13:13;4.55;;;4.10;;
11839;SDS011;5979;50.800;4.904;2023-03-23T01:15:39;4.38;;;4.07;;
11839;SDS011;5979;50.800;4.904;2023-03-23T01:18:05;3.80;;;3.58;;
11839;SDS011;5979;50.800;4.904;2023-03-23T01:20:31;4.10;;;3.70;;
11839;SDS011;5979;50.800;4.904;2023-03-23T01:22:58;5.72;;;4.18;;
11839;SDS011;5979;50.800;4.904;2023-03-23T01:25:25;4.18;;;3.80;;
11839;SDS011;5979;50.800;4.904;2023-03-23T01:27:53;4.53;;;4.15;;
11839;SDS011;5979;50.800;4.904;2023-03-23T01:30:18;3.90;;;3.58;;
11839;SDS011;5979;50.800;4.904;2023-03-23T01:32:44;4.20;;;3.90;;
11839;SDS011;5979;50.800;4.904;2023-03-23T01:35:12;4.50;;;4.10;;
11839;SDS011;5979;50.800;4.904;2023-03-23T01:37:38;4.80;;;4.40;;
11839;SDS011;5979;50.800;4.904;2023-03-23T01:40:04;4.22;;;3.97;;
11839;SDS011;5979;50.800;4.904;2023-03-23T01:42:31;6.93;;;4.35;;
11839;SDS011;5979;50.800;4.904;2023-03-23T01:45:44;4.47;;;4.18;;
11839;SDS011;5979;50.800;4.904;2023-03-23T01:48:07;6.25;;;4.15;;
11839;SDS011;5979;50.800;4.904;2023-03-23T01:50:33;5.05;;;4.65;;
11839;SDS011;5979;50.800;4.904;2023-03-23T01:53:09;5.25;;;4.28;;
11839;SDS011;5979;50.800;4.904;2023-03-23T01:55:36;4.50;;;4.20;;
11839;SDS011;5979;50.800;4.904;2023-03-23T01:58:05;4.45;;;4.15;;
11839;SDS011;5979;50.800;4.904;2023-03-23T02:00:31;4.57;;;4.20;;
11839;SDS011;5979;50.800;4.904;2023-03-23T02:02:58;3.95;;;3.72;;
11839;SDS011;5979;50.800;4.904;2023-03-23T02:07:52;4.68;;;4.28;;
11839;SDS011;5979;50.800;4.904;2023-03-23T02:10:19;4.68;;;4.28;;
11839;SDS011;5979;50.800;4.904;2023-03-23T02:12:44;3.85;;;3.65;;
11839;SDS011;5979;50.800;4.904;2023-03-23T02:15:10;4.07;;;3.78;;
11839;SDS011;5979;50.800;4.904;2023-03-23T02:17:51;4.07;;;3.78;;
11839;SDS011;5979;50.800;4.904;2023-03-23T02:23:25;5.30;;;3.88;;
11839;SDS011;5979;50.800;4.904;2023-03-23T02:26:25;3.95;;;3.60;;
11839;SDS011;5979;50.800;4.904;2023-03-23T02:31:52;4.88;;;3.70;;
11839;SDS011;5979;50.800;4.904;2023-03-23T02:36:58;4.03;;;3.30;;
11839;SDS011;5979;50.800;4.904;2023-03-23T02:39:29;5.68;;;3.67;;
11839;SDS011;5979;50.800;4.904;2023-03-23T02:42:07;4.00;;;3.58;;
11839;SDS011;5979;50.800;4.904;2023-03-23T02:44:36;3.90;;;3.55;;
11839;SDS011;5979;50.800;4.904;2023-03-23T02:47:06;3.67;;;3.45;;
11839;SDS011;5979;50.800;4.904;2023-03-23T02:49:36;3.63;;;3.33;;
11839;SDS011;5979;50.800;4.904;2023-03-23T02:52:08;4.15;;;3.72;;
11839;SDS011;5979;50.800;4.904;2023-03-23T02:54:41;5.05;;;3.45;;
11839;SDS011;5979;50.800;4.904;2023-03-23T02:57:09;3.72;;;3.42;;
11839;SDS011;5979;50.800;4.904;2023-03-23T02:59:36;3.22;;;2.95;;
11839;SDS011;5979;50.800;4.904;2023-03-23T03:02:11;5.82;;;3.70;;
11839;SDS011;5979;50.800;4.904;2023-03-23T03:04:41;3.25;;;3.05;;
11839;SDS011;5979;50.800;4.904;2023-03-23T03:07:36;3.35;;;3.05;;
11839;SDS011;5979;50.800;4.904;2023-03-23T03:10:40;3.38;;;3.08;;
11839;SDS011;5979;50.800;4.904;2023-03-23T03:13:04;3.13;;;2.92;;
11839;SDS011;5979;50.800;4.904;2023-03-23T03:15:40;2.92;;;2.78;;
11839;SDS011;5979;50.800;4.904;2023-03-23T03:20:49;5.13;;;2.92;;
11839;SDS011;5979;50.800;4.904;2023-03-23T03:23:19;2.90;;;2.70;;
11839;SDS011;5979;50.800;4.904;2023-03-23T03:25:48;3.17;;;2.95;;
11839;SDS011;5979;50.800;4.904;2023-03-23T03:28:16;3.00;;;2.80;;
11839;SDS011;5979;50.800;4.904;2023-03-23T03:30:46;3.50;;;3.20;;
11839;SDS011;5979;50.800;4.904;2023-03-23T03:33:16;3.20;;;2.95;;
11839;SDS011;5979;50.800;4.904;2023-03-23T03:35:45;3.83;;;3.10;;
11839;SDS011;5979;50.800;4.904;2023-03-23T03:38:12;3.15;;;2.85;;
11839;SDS011;5979;50.800;4.904;2023-03-23T03:40:38;3.20;;;2.70;;
11839;SDS011;5979;50.800;4.904;2023-03-23T03:43:03;3.17;;;2.97;;
11839;SDS011;5979;50.800;4.904;2023-03-23T03:45:31;2.90;;;2.70;;
11839;SDS011;5979;50.800;4.904;2023-03-23T03:47:58;2.95;;;2.75;;
11839;SDS011;5979;50.800;4.904;2023-03-23T03:50:25;3.10;;;2.78;;
11839;SDS011;5979;50.800;4.904;2023-03-23T03:52:51;3.05;;;2.75;;
11839;SDS011;5979;50.800;4.904;2023-03-23T03:55:17;2.90;;;2.70;;
11839;SDS011;5979;50.800;4.904;2023-03-23T03:57:43;3.97;;;3.60;;
11839;SDS011;5979;50.800;4.904;2023-03-23T04:00:09;3.22;;;2.92;;
11839;SDS011;5979;50.800;4.904;2023-03-23T04:02:40;2.95;;;2.70;;
11839;SDS011;5979;50.800;4.904;2023-03-23T04:05:07;2.88;;;2.67;;
11839;SDS011;5979;50.800;4.904;2023-03-23T04:07:34;3.17;;;2.90;;
11839;SDS011;5979;50.800;4.904;2023-03-23T04:10:03;3.38;;;2.85;;
11839;SDS011;5979;50.800;4.904;2023-03-23T04:12:30;3.47;;;2.90;;
11839;SDS011;5979;50.800;4.904;2023-03-23T04:14:56;2.58;;;2.40;;
11839;SDS011;5979;50.800;4.904;2023-03-23T04:17:22;4.93;;;2.65;;
11839;SDS011;5979;50.800;4.904;2023-03-23T04:19:51;2.88;;;2.58;;
11839;SDS011;5979;50.800;4.904;2023-03-23T04:22:17;2.70;;;2.50;;
11839;SDS011;5979;50.800;4.904;2023-03-23T04:24:43;2.67;;;2.47;;
11839;SDS011;5979;50.800;4.904;2023-03-23T04:27:08;4.93;;;2.65;;
11839;SDS011;5979;50.800;4.904;2023-03-23T04:29:34;3.55;;;2.38;;
11839;SDS011;5979;50.800;4.904;2023-03-23T04:32:00;3.42;;;2.40;;
11839;SDS011;5979;50.800;4.904;2023-03-23T04:34:27;3.05;;;2.65;;
11839;SDS011;5979;50.800;4.904;2023-03-23T04:36:52;3.28;;;2.38;;
11839;SDS011;5979;50.800;4.904;2023-03-23T04:39:19;3.60;;;2.38;;
11839;SDS011;5979;50.800;4.904;2023-03-23T04:41:44;5.03;;;2.15;;
11839;SDS011;5979;50.800;4.904;2023-03-23T04:44:11;4.25;;;2.50;;
11839;SDS011;5979;50.800;4.904;2023-03-23T04:46:42;4.15;;;2.17;;
11839;SDS011;5979;50.800;4.904;2023-03-23T04:49:10;2.78;;;2.30;;
11839;SDS011;5979;50.800;4.904;2023-03-23T04:51:36;3.97;;;2.50;;
11839;SDS011;5979;50.800;4.904;2023-03-23T04:54:04;3.05;;;2.08;;
11839;SDS011;5979;50.800;4.904;2023-03-23T04:56:29;4.88;;;2.08;;
11839;SDS011;5979;50.800;4.904;2023-03-23T04:58:55;4.18;;;2.38;;
11839;SDS011;5979;50.800;4.904;2023-03-23T05:01:21;3.85;;;1.92;;
11839;SDS011;5979;50.800;4.904;2023-03-23T05:03:46;4.40;;;2.25;;
11839;SDS011;5979;50.800;4.904;2023-03-23T05:06:12;3.90;;;2.30;;
11839;SDS011;5979;50.800;4.904;2023-03-23T05:08:38;4.80;;;2.20;;
11839;SDS011;5979;50.800;4.904;2023-03-23T05:11:04;3.25;;;2.00;;
11839;SDS011;5979;50.800;4.904;2023-03-23T05:13:31;3.70;;;2.22;;
11839;SDS011;5979;50.800;4.904;2023-03-23T05:15:57;2.92;;;2.20;;
11839;SDS011;5979;50.800;4.904;2023-03-23T05:18:23;4.25;;;2.08;;
11839;SDS011;5979;50.800;4.904;2023-03-23T05:20:50;4.60;;;2.60;;
11839;SDS011;5979;50.800;4.904;2023-03-23T05:23:18;3.17;;;2.33;;
11839;SDS011;5979;50.800;4.904;2023-03-23T05:25:55;5.25;;;2.40;;
11839;SDS011;5979;50.800;4.904;2023-03-23T05:28:25;3.53;;;2.10;;
11839;SDS011;5979;50.800;4.904;2023-03-23T05:30:51;4.53;;;2.00;;
11839;SDS011;5979;50.800;4.904;2023-03-23T05:33:18;1.95;;;1.85;;
11839;SDS011;5979;50.800;4.904;2023-03-23T05:35:45;4.53;;;2.63;;
11839;SDS011;5979;50.800;4.904;2023-03-23T05:38:12;2.00;;;1.90;;
11839;SDS011;5979;50.800;4.904;2023-03-23T05:40:39;4.40;;;2.17;;
11839;SDS011;5979;50.800;4.904;2023-03-23T05:43:06;3.10;;;2.25;;
11839;SDS011;5979;50.800;4.904;2023-03-23T05:45:32;3.72;;;2.13;;
11839;SDS011;5979;50.800;4.904;2023-03-23T05:47:59;5.05;;;2.53;;
11839;SDS011;5979;50.800;4.904;2023-03-23T05:50:24;2.25;;;2.03;;
11839;SDS011;5979;50.800;4.904;2023-03-23T05:52:51;2.20;;;1.90;;
11839;SDS011;5979;50.800;4.904;2023-03-23T05:55:16;3.65;;;2.25;;
11839;SDS011;5979;50.800;4.904;2023-03-23T05:57:42;3.47;;;2.00;;
11839;SDS011;5979;50.800;4.904;2023-03-23T06:00:08;2.00;;;1.90;;
11839;SDS011;5979;50.800;4.904;2023-03-23T06:02:46;3.22;;;2.20;;
11839;SDS011;5979;50.800;4.904;2023-03-23T06:05:13;2.55;;;2.13;;
11839;SDS011;5979;50.800;4.904;2023-03-23T06:07:40;3.20;;;2.35;;
11839;SDS011;5979;50.800;4.904;2023-03-23T06:10:07;2.35;;;2.15;;
11839;SDS011;5979;50.800;4.904;2023-03-23T06:12:34;4.20;;;2.30;;
11839;SDS011;5979;50.800;4.904;2023-03-23T06:15:00;3.90;;;2.30;;
11839;SDS011;5979;50.800;4.904;2023-03-23T06:17:26;4.57;;;2.25;;
11839;SDS011;5979;50.800;4.904;2023-03-23T06:19:52;4.57;;;2.17;;
11839;SDS011;5979;50.800;4.904;2023-03-23T06:22:18;3.28;;;2.15;;
11839;SDS011;5979;50.800;4.904;2023-03-23T06:24:44;2.58;;;2.00;;
11839;SDS011;5979;50.800;4.904;2023-03-23T06:27:10;5.32;;;2.28;;
11839;SDS011;5979;50.800;4.904;2023-03-23T06:29:36;2.33;;;2.13;;
11839;SDS011;5979;50.800;4.904;2023-03-23T06:32:02;4.35;;;1.90;;
11839;SDS011;5979;50.800;4.904;2023-03-23T06:34:29;3.95;;;2.53;;
11839;SDS011;5979;50.800;4.904;2023-03-23T06:36:57;3.03;;;2.20;;
11839;SDS011;5979;50.800;4.904;2023-03-23T06:39:23;4.80;;;2.17;;
11839;SDS011;5979;50.800;4.904;2023-03-23T06:41:49;2.47;;;2.00;;
11839;SDS011;5979;50.800;4.904;2023-03-23T06:44:15;3.20;;;1.90;;
11839;SDS011;5979;50.800;4.904;2023-03-23T06:46:41;2.63;;;2.08;;
11839;SDS011;5979;50.800;4.904;2023-03-23T06:49:07;3.65;;;1.83;;
11839;SDS011;5979;50.800;4.904;2023-03-23T06:51:34;3.90;;;1.98;;
11839;SDS011;5979;50.800;4.904;2023-03-23T06:54:01;3.58;;;2.30;;
11839;SDS011;5979;50.800;4.904;2023-03-23T06:56:27;6.05;;;2.05;;
11839;SDS011;5979;50.800;4.904;2023-03-23T06:58:53;3.60;;;2.50;;
11839;SDS011;5979;50.800;4.904;2023-03-23T07:01:19;2.47;;;2.08;;
11839;SDS011;5979;50.800;4.904;2023-03-23T07:03:44;6.88;;;2.30;;
11839;SDS011;5979;50.800;4.904;2023-03-23T07:06:10;3.80;;;2.10;;
11839;SDS011;5979;50.800;4.904;2023-03-23T07:08:37;3.25;;;2.10;;
11839;SDS011;5979;50.800;4.904;2023-03-23T07:11:03;4.72;;;2.03;;
11839;SDS011;5979;50.800;4.904;2023-03-23T07:13:29;2.17;;;1.92;;
11839;SDS011;5979;50.800;4.904;2023-03-23T07:15:54;3.83;;;2.03;;
11839;SDS011;5979;50.800;4.904;2023-03-23T07:18:20;2.78;;;2.40;;
11839;SDS011;5979;50.800;4.904;2023-03-23T07:20:47;4.90;;;2.20;;
11839;SDS011;5979;50.800;4.904;2023-03-23T07:23:14;4.72;;;2.17;;
11839;SDS011;5979;50.800;4.904;2023-03-23T07:25:40;4.15;;;2.00;;
11839;SDS011;5979;50.800;4.904;2023-03-23T07:28:06;2.40;;;1.90;;
11839;SDS011;5979;50.800;4.904;2023-03-23T07:30:32;2.78;;;1.90;;
11839;SDS011;5979;50.800;4.904;2023-03-23T07:32:57;4.53;;;2.45;;
11839;SDS011;5979;50.800;4.904;2023-03-23T07:35:24;3.65;;;2.15;;
11839;SDS011;5979;50.800;4.904;2023-03-23T07:37:50;2.67;;;1.98;;
11839;SDS011;5979;50.800;4.904;2023-03-23T07:40:17;2.75;;;1.85;;
11839;SDS011;5979;50.800;4.904;2023-03-23T07:42:50;2.65;;;2.45;;
11839;SDS011;5979;50.800;4.904;2023-03-23T07:45:18;3.45;;;2.00;;
11839;SDS011;5979;50.800;4.904;2023-03-23T07:47:43;2.40;;;2.15;;
11839;SDS011;5979;50.800;4.904;2023-03-23T07:50:10;4.43;;;1.85;;
11839;SDS011;5979;50.800;4.904;2023-03-23T07:52:37;4.43;;;2.17;;
11839;SDS011;5979;50.800;4.904;2023-03-23T07:55:04;3.30;;;2.05;;
11839;SDS011;5979;50.800;4.904;2023-03-23T07:57:31;2.42;;;2.10;;
11839;SDS011;5979;50.800;4.904;2023-03-23T07:59:58;2.78;;;1.75;;
11839;SDS011;5979;50.800;4.904;2023-03-23T08:02:24;4.30;;;2.25;;
11839;SDS011;5979;50.800;4.904;2023-03-23T08:04:50;3.83;;;2.08;;
11839;SDS011;5979;50.800;4.904;2023-03-23T08:07:16;5.90;;;2.40;;
11839;SDS011;5979;50.800;4.904;2023-03-23T08:09:44;2.38;;;1.80;;
11839;SDS011;5979;50.800;4.904;2023-03-23T08:12:10;3.42;;;2.05;;
11839;SDS011;5979;50.800;4.904;2023-03-23T08:14:36;4.45;;;2.30;;
11839;SDS011;5979;50.800;4.904;2023-03-23T08:17:02;2.80;;;2.05;;
11839;SDS011;5979;50.800;4.904;2023-03-23T08:19:27;5.10;;;2.50;;
11839;SDS011;5979;50.800;4.904;2023-03-23T08:21:53;2.80;;;2.30;;
11839;SDS011;5979;50.800;4.904;2023-03-23T08:24:19;4.05;;;2.15;;
11839;SDS011;5979;50.800;4.904;2023-03-23T08:26:45;5.20;;;2.30;;
11839;SDS011;5979;50.800;4.904;2023-03-23T08:29:10;3.97;;;2.33;;
11839;SDS011;5979;50.800;4.904;2023-03-23T08:31:37;2.78;;;2.40;;
11839;SDS011;5979;50.800;4.904;2023-03-23T08:34:04;3.40;;;2.28;;
11839;SDS011;5979;50.800;4.904;2023-03-23T08:36:31;2.95;;;2.10;;
11839;SDS011;5979;50.800;4.904;2023-03-23T08:38:58;4.18;;;2.35;;
11839;SDS011;5979;50.800;4.904;2023-03-23T08:41:24;2.95;;;2.17;;
11839;SDS011;5979;50.800;4.904;2023-03-23T08:43:50;2.45;;;1.50;;
11839;SDS011;5979;50.800;4.904;2023-03-23T08:46:17;1.60;;;1.20;;
11839;SDS011;5979;50.800;4.904;2023-03-23T08:48:44;2.28;;;1.30;;
11839;SDS011;5979;50.800;4.904;2023-03-23T08:51:10;1.08;;;1.00;;
11839;SDS011;5979;50.800;4.904;2023-03-23T08:53:37;1.33;;;1.17;;
11839;SDS011;5979;50.800;4.904;2023-03-23T08:56:08;3.78;;;1.33;;
11839;SDS011;5979;50.800;4.904;2023-03-23T08:58:36;1.13;;;1.10;;
11839;SDS011;5979;50.800;4.904;2023-03-23T09:01:02;1.50;;;1.17;;
11839;SDS011;5979;50.800;4.904;2023-03-23T09:03:31;1.77;;;1.38;;
11839;SDS011;5979;50.800;4.904;2023-03-23T09:05:58;1.92;;;1.05;;
11839;SDS011;5979;50.800;4.904;2023-03-23T09:08:25;2.88;;;1.45;;
11839;SDS011;5979;50.800;4.904;2023-03-23T09:10:54;2.92;;;1.38;;
11839;SDS011;5979;50.800;4.904;2023-03-23T09:13:21;1.10;;;1.00;;
11839;SDS011;5979;50.800;4.904;2023-03-23T09:15:47;1.75;;;1.00;;
11839;SDS011;5979;50.800;4.904;2023-03-23T09:18:14;2.35;;;1.15;;
11839;SDS011;5979;50.800;4.904;2023-03-23T09:20:40;2.03;;;1.40;;
11839;SDS011;5979;50.800;4.904;2023-03-23T09:23:07;1.38;;;1.27;;
11839;SDS011;5979;50.800;4.904;2023-03-23T09:25:33;2.35;;;1.40;;
11839;SDS011;5979;50.800;4.904;2023-03-23T09:27:58;3.10;;;1.77;;
11839;SDS011;5979;50.800;4.904;2023-03-23T09:30:26;2.67;;;1.90;;
11839;SDS011;5979;50.800;4.904;2023-03-23T09:32:55;3.25;;;1.50;;
11839;SDS011;5979;50.800;4.904;2023-03-23T09:35:21;2.10;;;1.40;;
11839;SDS011;5979;50.800;4.904;2023-03-23T09:37:47;1.38;;;1.27;;
11839;SDS011;5979;50.800;4.904;2023-03-23T09:40:25;1.73;;;1.33;;
11839;SDS011;5979;50.800;4.904;2023-03-23T09:43:12;2.90;;;1.30;;
11839;SDS011;5979;50.800;4.904;2023-03-23T09:45:43;2.83;;;1.40;;
11839;SDS011;5979;50.800;4.904;2023-03-23T09:51:19;0.98;;;0.98;;
11839;SDS011;5979;50.800;4.904;2023-03-23T09:56:49;1.38;;;1.00;;
11839;SDS011;5979;50.800;4.904;2023-03-23T10:01:53;1.90;;;1.05;;
11839;SDS011;5979;50.800;4.904;2023-03-23T10:07:22;1.90;;;1.20;;
11839;SDS011;5979;50.800;4.904;2023-03-23T10:09:54;1.92;;;1.40;;
11839;SDS011;5979;50.800;4.904;2023-03-23T10:15:36;4.40;;;2.08;;
11839;SDS011;5979;50.800;4.904;2023-03-23T10:20:56;2.85;;;2.60;;
11839;SDS011;5979;50.800;4.904;2023-03-23T10:23:33;3.67;;;3.38;;
11839;SDS011;5979;50.800;4.904;2023-03-23T10:31:04;6.15;;;4.43;;
11839;SDS011;5979;50.800;4.904;2023-03-23T10:33:42;5.03;;;4.53;;
11839;SDS011;5979;50.800;4.904;2023-03-23T10:36:29;5.60;;;3.50;;
11839;SDS011;5979;50.800;4.904;2023-03-23T10:39:22;3.50;;;3.20;;
11839;SDS011;5979;50.800;4.904;2023-03-23T10:41:51;3.35;;;3.05;;
11839;SDS011;5979;50.800;4.904;2023-03-23T10:44:21;3.38;;;2.50;;
11839;SDS011;5979;50.800;4.904;2023-03-23T10:47:00;3.38;;;2.42;;
11839;SDS011;5979;50.800;4.904;2023-03-23T10:54:56;3.70;;;1.73;;
11839;SDS011;5979;50.800;4.904;2023-03-23T10:57:27;4.18;;;2.08;;
11839;SDS011;5979;50.800;4.904;2023-03-23T10:59:58;5.15;;;1.70;;
11839;SDS011;5979;50.800;4.904;2023-03-23T11:02:26;2.17;;;1.63;;
11839;SDS011;5979;50.800;4.904;2023-03-23T11:04:55;5.60;;;2.08;;
11839;SDS011;5979;50.800;4.904;2023-03-23T11:07:26;2.05;;;1.70;;
11839;SDS011;5979;50.800;4.904;2023-03-23T11:09:55;3.58;;;2.40;;
11839;SDS011;5979;50.800;4.904;2023-03-23T11:12:23;2.50;;;2.40;;
11839;SDS011;5979;50.800;4.904;2023-03-23T11:14:49;2.85;;;2.13;;
11839;SDS011;5979;50.800;4.904;2023-03-23T11:17:23;2.80;;;2.53;;
11839;SDS011;5979;50.800;4.904;2023-03-23T11:19:50;3.05;;;2.75;;
11839;SDS011;5979;50.800;4.904;2023-03-23T11:25:03;2.72;;;2.53;;
11839;SDS011;5979;50.800;4.904;2023-03-23T11:27:30;4.63;;;2.47;;
11839;SDS011;5979;50.800;4.904;2023-03-23T11:30:07;4.60;;;2.08;;
11839;SDS011;5979;50.800;4.904;2023-03-23T11:32:34;4.25;;;2.55;;
11839;SDS011;5979;50.800;4.904;2023-03-23T11:35:02;3.22;;;2.63;;
11839;SDS011;5979;50.800;4.904;2023-03-23T11:37:43;5.05;;;2.65;;
11839;SDS011;5979;50.800;4.904;2023-03-23T11:43:27;3.65;;;2.55;;
11839;SDS011;5979;50.800;4.904;2023-03-23T11:45:38;2.92;;;2.65;;
11839;SDS011;5979;50.800;4.904;2023-03-23T11:48:15;3.20;;;2.58;;
11839;SDS011;5979;50.800;4.904;2023-03-23T11:53:59;5.15;;;2.80;;
11839;SDS011;5979;50.800;4.904;2023-03-23T11:56:35;5.32;;;3.28;;
11839;SDS011;5979;50.800;4.904;2023-03-23T11:59:39;3.22;;;2.60;;
11839;SDS011;5979;50.800;4.904;2023-03-23T12:02:06;4.80;;;2.92;;
11839;SDS011;5979;50.800;4.904;2023-03-23T12:07:44;3.20;;;2.50;;
11839;SDS011;5979;50.800;4.904;2023-03-23T12:10:18;2.55;;;2.35;;
11839;SDS011;5979;50.800;4.904;2023-03-23T12:12:55;3.03;;;2.22;;
11839;SDS011;5979;50.800;4.904;2023-03-23T12:18:37;2.97;;;2.13;;
11839;SDS011;5979;50.800;4.904;2023-03-23T12:21:23;2.05;;;1.95;;
11839;SDS011;5979;50.800;4.904;2023-03-23T12:24:20;2.63;;;1.88;;
11839;SDS011;5979;50.800;4.904;2023-03-23T12:26:57;5.18;;;2.20;;
11839;SDS011;5979;50.800;4.904;2023-03-23T12:29:43;3.67;;;1.80;;
11839;SDS011;5979;50.800;4.904;2023-03-23T12:43:38;3.75;;;2.17;;
11839;SDS011;5979;50.800;4.904;2023-03-23T12:49:21;5.03;;;2.60;;
11839;SDS011;5979;50.800;4.904;2023-03-23T12:57:56;7.70;;;2.90;;
11839;SDS011;5979;50.800;4.904;2023-03-23T13:00:30;6.47;;;2.80;;
11839;SDS011;5979;50.800;4.904;2023-03-23T13:06:03;3.30;;;2.63;;
11839;SDS011;5979;50.800;4.904;2023-03-23T13:11:19;5.63;;;2.88;;
11839;SDS011;5979;50.800;4.904;2023-03-23T13:13:51;3.17;;;2.85;;
11839;SDS011;5979;50.800;4.904;2023-03-23T13:19:25;4.13;;;2.85;;
11839;SDS011;5979;50.800;4.904;2023-03-23T13:22:13;5.40;;;2.50;;
11839;SDS011;5979;50.800;4.904;2023-03-23T13:24:56;6.82;;;2.50;;
11839;SDS011;5979;50.800;4.904;2023-03-23T13:27:26;3.55;;;3.10;;
11839;SDS011;5979;50.800;4.904;2023-03-23T13:29:53;4.45;;;2.80;;
11839;SDS011;5979;50.800;4.904;2023-03-23T13:32:20;5.45;;;3.47;;
11839;SDS011;5979;50.800;4.904;2023-03-23T13:34:47;7.07;;;3.10;;
11839;SDS011;5979;50.800;4.904;2023-03-23T13:37:24;9.23;;;3.95;;
11839;SDS011;5979;50.800;4.904;2023-03-23T13:39:55;5.47;;;3.47;;
11839;SDS011;5979;50.800;4.904;2023-03-23T13:42:30;5.85;;;3.30;;
11839;SDS011;5979;50.800;4.904;2023-03-23T13:47:49;6.13;;;3.50;;
11839;SDS011;5979;50.800;4.904;2023-03-23T13:50:27;8.57;;;4.15;;
11839;SDS011;5979;50.800;4.904;2023-03-23T13:52:58;4.38;;;3.75;;
11839;SDS011;5979;50.800;4.904;2023-03-23T14:10:58;4.47;;;3.42;;
11839;SDS011;5979;50.800;4.904;2023-03-23T14:18:46;8.65;;;4.13;;
11839;SDS011;5979;50.800;4.904;2023-03-23T14:21:17;5.10;;;3.70;;
11839;SDS011;5979;50.800;4.904;2023-03-23T14:23:47;8.05;;;3.67;;
11839;SDS011;5979;50.800;4.904;2023-03-23T14:26:17;6.40;;;3.72;;
11839;SDS011;5979;50.800;4.904;2023-03-23T14:28:45;6.07;;;3.60;;
11839;SDS011;5979;50.800;4.904;2023-03-23T14:31:19;6.47;;;4.03;;
11839;SDS011;5979;50.800;4.904;2023-03-23T14:33:47;7.82;;;4.00;;
11839;SDS011;5979;50.800;4.904;2023-03-23T14:36:23;5.10;;;3.40;;
11839;SDS011;5979;50.800;4.904;2023-03-23T14:39:04;5.97;;;3.70;;
11839;SDS011;5979;50.800;4.904;2023-03-23T14:41:36;5.97;;;3.65;;
11839;SDS011;5979;50.800;4.904;2023-03-23T14:44:03;7.25;;;3.90;;
11839;SDS011;5979;50.800;4.904;2023-03-23T14:46:32;8.95;;;3.50;;
11839;SDS011;5979;50.800;4.904;2023-03-23T14:49:02;3.70;;;3.30;;
11839;SDS011;5979;50.800;4.904;2023-03-23T14:51:29;6.95;;;4.13;;
11839;SDS011;5979;50.800;4.904;2023-03-23T14:53:55;6.75;;;3.75;;
11839;SDS011;5979;50.800;4.904;2023-03-23T14:56:30;5.07;;;3.92;;
11839;SDS011;5979;50.800;4.904;2023-03-23T14:59:05;5.15;;;3.38;;
11839;SDS011;5979;50.800;4.904;2023-03-23T15:01:35;4.68;;;3.20;;
11839;SDS011;5979;50.800;4.904;2023-03-23T15:04:08;7.65;;;3.20;;
11839;SDS011;5979;50.800;4.904;2023-03-23T15:06:44;8.50;;;3.40;;
11839;SDS011;5979;50.800;4.904;2023-03-23T15:09:17;5.60;;;2.85;;
11839;SDS011;5979;50.800;4.904;2023-03-23T15:11:51;3.72;;;2.58;;
11839;SDS011;5979;50.800;4.904;2023-03-23T15:14:27;7.43;;;3.45;;
11839;SDS011;5979;50.800;4.904;2023-03-23T15:16:56;6.22;;;3.20;;
11839;SDS011;5979;50.800;4.904;2023-03-23T15:19:24;5.70;;;2.90;;
11839;SDS011;5979;50.800;4.904;2023-03-23T15:21:56;6.90;;;3.13;;
11839;SDS011;5979;50.800;4.904;2023-03-23T15:24:33;3.97;;;2.85;;
11839;SDS011;5979;50.800;4.904;2023-03-23T15:27:10;4.18;;;2.65;;
11839;SDS011;5979;50.800;4.904;2023-03-23T15:29:58;7.28;;;2.70;;
11839;SDS011;5979;50.800;4.904;2023-03-23T15:32:27;5.72;;;3.05;;
11839;SDS011;5979;50.800;4.904;2023-03-23T15:34:55;4.88;;;3.03;;
11839;SDS011;5979;50.800;4.904;2023-03-23T15:37:30;4.60;;;2.67;;
11839;SDS011;5979;50.800;4.904;2023-03-23T15:39:57;4.70;;;3.22;;
11839;SDS011;5979;50.800;4.904;2023-03-23T15:42:28;8.15;;;3.00;;
11839;SDS011;5979;50.800;4.904;2023-03-23T15:50:16;6.70;;;3.45;;
11839;SDS011;5979;50.800;4.904;2023-03-23T15:52:56;7.53;;;3.13;;
11839;SDS011;5979;50.800;4.904;2023-03-23T15:55:24;6.20;;;2.90;;
11839;SDS011;5979;50.800;4.904;2023-03-23T15:57:56;8.10;;;3.03;;
11839;SDS011;5979;50.800;4.904;2023-03-23T16:00:23;6.38;;;3.45;;
11839;SDS011;5979;50.800;4.904;2023-03-23T16:02:55;7.20;;;3.20;;
11839;SDS011;5979;50.800;4.904;2023-03-23T16:05:24;7.40;;;3.22;;
11839;SDS011;5979;50.800;4.904;2023-03-23T16:07:51;7.10;;;3.55;;
11839;SDS011;5979;50.800;4.904;2023-03-23T16:10:18;6.68;;;2.90;;
11839;SDS011;5979;50.800;4.904;2023-03-23T16:12:45;5.72;;;3.33;;
11839;SDS011;5979;50.800;4.904;2023-03-23T16:15:14;5.15;;;3.25;;
11839;SDS011;5979;50.800;4.904;2023-03-23T16:17:40;7.72;;;3.10;;
11839;SDS011;5979;50.800;4.904;2023-03-23T16:20:17;5.95;;;2.95;;
11839;SDS011;5979;50.800;4.904;2023-03-23T16:22:45;4.07;;;2.90;;
11839;SDS011;5979;50.800;4.904;2023-03-23T16:25:12;7.80;;;2.95;;
11839;SDS011;5979;50.800;4.904;2023-03-23T16:27:39;5.00;;;2.97;;
11839;SDS011;5979;50.800;4.904;2023-03-23T16:30:25;5.32;;;3.30;;
11839;SDS011;5979;50.800;4.904;2023-03-23T16:32:52;7.47;;;3.00;;
11839;SDS011;5979;50.800;4.904;2023-03-23T16:35:18;7.53;;;3.22;;
11839;SDS011;5979;50.800;4.904;2023-03-23T16:37:49;4.50;;;3.22;;
11839;SDS011;5979;50.800;4.904;2023-03-23T16:40:18;6.60;;;3.47;;
11839;SDS011;5979;50.800;4.904;2023-03-23T16:42:45;4.63;;;2.72;;
11839;SDS011;5979;50.800;4.904;2023-03-23T16:45:11;6.10;;;3.03;;
11839;SDS011;5979;50.800;4.904;2023-03-23T16:47:38;5.40;;;2.90;;
11839;SDS011;5979;50.800;4.904;2023-03-23T16:50:05;3.08;;;2.58;;
11839;SDS011;5979;50.800;4.904;2023-03-23T16:52:35;4.25;;;3.13;;
11839;SDS011;5979;50.800;4.904;2023-03-23T16:55:00;6.38;;;2.80;;
11839;SDS011;5979;50.800;4.904;2023-03-23T16:57:26;7.00;;;3.20;;
11839;SDS011;5979;50.800;4.904;2023-03-23T16:59:52;4.78;;;2.60;;
11839;SDS011;5979;50.800;4.904;2023-03-23T17:02:18;6.97;;;3.17;;
11839;SDS011;5979;50.800;4.904;2023-03-23T17:04:44;6.50;;;3.55;;
11839;SDS011;5979;50.800;4.904;2023-03-23T17:07:11;6.28;;;3.40;;
11839;SDS011;5979;50.800;4.904;2023-03-23T17:09:38;7.20;;;3.05;;